Kingfisher D — V7PL2 — position and weather

sailwx.info

Track history (hours):
 
Tides and Currents Weather Stations Pressure Air Temp Water Temp Dewpoint Dewpoint Depression Visibility Wind Speed Wind Dir Waves Ship Positions

Kingfisher D

Last reported at 2018-Feb-25 08:00 UTC. Time now 2018-Feb-25 08:03 UTC.
Position N 46°57' E 031°59'.

Length 170 m; draft 6.1 m.

Type: Cargo ship. MMSI: 538003253.

Date/timePositionNaut miles runAvg speedWind from/ knotsBaromVisibWave heightAir tempDewpointWater temp
2018-Feb-25 08:00N 46°57' E 031°59'0 0.0
2018-Feb-25 07:30N 46°57' E 031°59'0 0.0
2018-Feb-25 07:00N 46°57' E 031°59'0 0.0
2018-Feb-25 06:30N 46°57' E 031°59'0 0.0
2018-Feb-25 06:00N 46°57' E 031°59'0 0.0
2018-Feb-25 05:30N 46°57' E 031°59'0 0.0
2018-Feb-25 05:00N 46°57' E 031°59'0 0.0
2018-Feb-25 04:30N 46°57' E 031°59'0 0.0
2018-Feb-25 04:00N 46°57' E 031°59'0 0.0
2018-Feb-25 03:30N 46°57' E 031°59'0 0.0
2018-Feb-25 03:00N 46°57' E 031°59'0 0.0
2018-Feb-25 02:30N 46°57' E 031°59'0 0.0
2018-Feb-25 02:00N 46°57' E 031°59'0 0.0
2018-Feb-25 01:30N 46°57' E 031°59'0 0.0
2018-Feb-25 01:00N 46°57' E 031°59'0 0.0
2018-Feb-25 00:30N 46°57' E 031°59'0 0.0
2018-Feb-25 00:00N 46°57' E 031°59'0 0.0
2018-Feb-24 23:30N 46°57' E 031°59'0 0.0
2018-Feb-24 23:00N 46°57' E 031°59'0 0.0
2018-Feb-24 22:30N 46°57' E 031°59'0 0.0
2018-Feb-24 22:00N 46°57' E 031°59'0 0.0
2018-Feb-24 21:30N 46°57' E 031°59'0 0.0
2018-Feb-24 21:00N 46°57' E 031°59'0 0.0
2018-Feb-24 20:30N 46°57' E 031°59'0 0.0
2018-Feb-24 20:00N 46°57' E 031°59'0 0.0
2018-Feb-24 19:30N 46°57' E 031°59'0 0.0
2018-Feb-24 19:00N 46°57' E 031°59'0 0.0
2018-Feb-24 18:30N 46°57' E 031°59'0 0.0
2018-Feb-24 18:00N 46°57' E 031°59'0 0.0
2018-Feb-24 17:30N 46°57' E 031°59'0 0.0
2018-Feb-24 17:00N 46°57' E 031°59'0 0.0
2018-Feb-24 16:30N 46°57' E 031°59'0 0.0
2018-Feb-24 16:00N 46°57' E 031°59'0 0.0
2018-Feb-24 15:30N 46°57' E 031°59'0 0.0
2018-Feb-24 15:00N 46°57' E 031°59'0 0.0
2018-Feb-24 14:30N 46°57' E 031°59'0 0.0
2018-Feb-24 14:00N 46°57' E 031°59'0 0.0
2018-Feb-24 13:30N 46°57' E 031°59'0 0.0
2018-Feb-24 13:00N 46°57' E 031°59'0 0.0
2018-Feb-24 12:30N 46°57' E 031°59'0 0.0
2018-Feb-24 12:00N 46°57' E 031°59'0 0.0
2018-Feb-24 11:30N 46°57' E 031°59'0 0.0
2018-Feb-24 11:00N 46°57' E 031°59'0 0.0
2018-Feb-24 10:30N 46°57' E 031°59'0 0.0
2018-Feb-24 10:00N 46°57' E 031°59'0 0.0
2018-Feb-24 09:27N 46°57' E 031°59'0 0.0
2018-Feb-24 09:00N 46°57' E 031°59'0 0.0
2018-Feb-24 08:30N 46°57' E 031°59'0 0.0
2018-Feb-24 08:00N 46°57' E 031°59'0 0.0
2018-Feb-24 07:30N 46°57' E 031°59'0 0.0
2018-Feb-24 07:00N 46°57' E 031°59'0 0.0
2018-Feb-24 06:30N 46°57' E 031°59'0 0.0
2018-Feb-24 06:00N 46°57' E 031°59'0 0.0
2018-Feb-24 05:30N 46°57' E 031°59'1 1.4
2018-Feb-24 05:00N 46°56' E 031°60'0 0.6
2018-Feb-24 04:29N 46°56' E 032°00'0 0.0
2018-Feb-24 03:59N 46°57' E 032°00'0 0.0
2018-Feb-24 03:29N 46°57' E 032°00'0 0.0
2018-Feb-24 02:59N 46°57' E 032°00'0 0.0
2018-Feb-24 02:29N 46°57' E 032°00'0 0.0
2018-Feb-24 01:59N 46°57' E 032°00'0 0.0
2018-Feb-24 01:29N 46°57' E 032°00'0 0.1
2018-Feb-24 00:59N 46°57' E 032°00'0 0.0
2018-Feb-24 00:29N 46°57' E 032°00'0 0.0
2018-Feb-23 23:59N 46°57' E 032°00'0 0.1
2018-Feb-23 23:29N 46°57' E 032°00'0 0.1
2018-Feb-23 22:59N 46°56' E 032°00'0 0.1
2018-Feb-23 22:29N 46°56' E 032°00'1 3.0
2018-Feb-23 22:00N 46°55' E 032°01'510.2
2018-Feb-23 21:30N 46°51' E 031°57'611.0
2018-Feb-23 21:00N 46°46' E 031°53'510.7
2018-Feb-23 20:30N 46°41' E 031°56'510.7
2018-Feb-23 20:00N 46°37' E 031°51'611.2
2018-Feb-23 19:30N 46°36' E 031°43'510.8
2018-Feb-23 19:00N 46°35' E 031°35'6 3.4
2018-Feb-23 17:07N 46°34' E 031°26'0 0.0
2018-Feb-23 16:43N 46°34' E 031°26'0 0.0
2018-Feb-23 13:04N 46°34' E 031°26'0 0.4
2018-Feb-23 13:00N 46°34' E 031°26'4 6.2
2018-Feb-23 12:25N 46°35' E 031°21'1010.6
2018-Feb-23 11:30N 46°35' E 031°06'5 9.0
2018-Feb-23 10:59N 46°33' E 031°00'2 4.9
2018-Feb-23 10:31N 46°33' E 030°57'510.1
2018-Feb-23 10:00N 46°28' E 030°57'611.8
2018-Feb-23 09:31N 46°22' E 030°57'  
2018-Feb-20 11:50N 37°38' E 024°04'5 9.9
2018-Feb-20 11:21N 37°33' E 024°04'  
Track history (hours):
 
Tides and Currents Weather Stations Pressure Air Temp Water Temp Dewpoint Dewpoint Depression Visibility Wind Speed Wind Dir Waves Ship Positions

Kingfisher D

Last reported at 2018-Feb-25 08:00 UTC. Time now 2018-Feb-25 08:03 UTC.
Position N 46°57' E 031°59'.

Length 170 m; draft 6.1 m.

Type: Cargo ship. MMSI: 538003253.

Date/timePositionNaut miles runAvg speedWind from/ knotsBaromVisibWave heightAir tempDewpointWater temp
2018-Feb-25 08:00N 46°57' E 031°59'0 0.0
2018-Feb-25 07:30N 46°57' E 031°59'0 0.0
2018-Feb-25 07:00N 46°57' E 031°59'0 0.0
2018-Feb-25 06:30N 46°57' E 031°59'0 0.0
2018-Feb-25 06:00N 46°57' E 031°59'0 0.0
2018-Feb-25 05:30N 46°57' E 031°59'0 0.0
2018-Feb-25 05:00N 46°57' E 031°59'0 0.0
2018-Feb-25 04:30N 46°57' E 031°59'0 0.0
2018-Feb-25 04:00N 46°57' E 031°59'0 0.0
2018-Feb-25 03:30N 46°57' E 031°59'0 0.0
2018-Feb-25 03:00N 46°57' E 031°59'0 0.0
2018-Feb-25 02:30N 46°57' E 031°59'0 0.0
2018-Feb-25 02:00N 46°57' E 031°59'0 0.0
2018-Feb-25 01:30N 46°57' E 031°59'0 0.0
2018-Feb-25 01:00N 46°57' E 031°59'0 0.0
2018-Feb-25 00:30N 46°57' E 031°59'0 0.0
2018-Feb-25 00:00N 46°57' E 031°59'0 0.0
2018-Feb-24 23:30N 46°57' E 031°59'0 0.0
2018-Feb-24 23:00N 46°57' E 031°59'0 0.0
2018-Feb-24 22:30N 46°57' E 031°59'0 0.0
2018-Feb-24 22:00N 46°57' E 031°59'0 0.0
2018-Feb-24 21:30N 46°57' E 031°59'0 0.0
2018-Feb-24 21:00N 46°57' E 031°59'0 0.0
2018-Feb-24 20:30N 46°57' E 031°59'0 0.0
2018-Feb-24 20:00N 46°57' E 031°59'0 0.0
2018-Feb-24 19:30N 46°57' E 031°59'0 0.0
2018-Feb-24 19:00N 46°57' E 031°59'0 0.0
2018-Feb-24 18:30N 46°57' E 031°59'0 0.0
2018-Feb-24 18:00N 46°57' E 031°59'0 0.0
2018-Feb-24 17:30N 46°57' E 031°59'0 0.0
2018-Feb-24 17:00N 46°57' E 031°59'0 0.0
2018-Feb-24 16:30N 46°57' E 031°59'0 0.0
2018-Feb-24 16:00N 46°57' E 031°59'0 0.0
2018-Feb-24 15:30N 46°57' E 031°59'0 0.0
2018-Feb-24 15:00N 46°57' E 031°59'0 0.0
2018-Feb-24 14:30N 46°57' E 031°59'0 0.0
2018-Feb-24 14:00N 46°57' E 031°59'0 0.0
2018-Feb-24 13:30N 46°57' E 031°59'0 0.0
2018-Feb-24 13:00N 46°57' E 031°59'0 0.0
2018-Feb-24 12:30N 46°57' E 031°59'0 0.0
2018-Feb-24 12:00N 46°57' E 031°59'0 0.0
2018-Feb-24 11:30N 46°57' E 031°59'0 0.0
2018-Feb-24 11:00N 46°57' E 031°59'0 0.0
2018-Feb-24 10:30N 46°57' E 031°59'0 0.0
2018-Feb-24 10:00N 46°57' E 031°59'0 0.0
2018-Feb-24 09:27N 46°57' E 031°59'0 0.0
2018-Feb-24 09:00N 46°57' E 031°59'0 0.0
2018-Feb-24 08:30N 46°57' E 031°59'0 0.0
2018-Feb-24 08:00N 46°57' E 031°59'0 0.0
2018-Feb-24 07:30N 46°57' E 031°59'0 0.0
2018-Feb-24 07:00N 46°57' E 031°59'0 0.0
2018-Feb-24 06:30N 46°57' E 031°59'0 0.0
2018-Feb-24 06:00N 46°57' E 031°59'0 0.0
2018-Feb-24 05:30N 46°57' E 031°59'1 1.4
2018-Feb-24 05:00N 46°56' E 031°60'0 0.6
2018-Feb-24 04:29N 46°56' E 032°00'0 0.0
2018-Feb-24 03:59N 46°57' E 032°00'0 0.0
2018-Feb-24 03:29N 46°57' E 032°00'0 0.0
2018-Feb-24 02:59N 46°57' E 032°00'0 0.0
2018-Feb-24 02:29N 46°57' E 032°00'0 0.0
2018-Feb-24 01:59N 46°57' E 032°00'0 0.0
2018-Feb-24 01:29N 46°57' E 032°00'0 0.1
2018-Feb-24 00:59N 46°57' E 032°00'0 0.0
2018-Feb-24 00:29N 46°57' E 032°00'0 0.0
2018-Feb-23 23:59N 46°57' E 032°00'0 0.1
2018-Feb-23 23:29N 46°57' E 032°00'0 0.1
2018-Feb-23 22:59N 46°56' E 032°00'0 0.1
2018-Feb-23 22:29N 46°56' E 032°00'1 3.0
2018-Feb-23 22:00N 46°55' E 032°01'510.2
2018-Feb-23 21:30N 46°51' E 031°57'611.0
2018-Feb-23 21:00N 46°46' E 031°53'510.7
2018-Feb-23 20:30N 46°41' E 031°56'510.7
2018-Feb-23 20:00N 46°37' E 031°51'611.2
2018-Feb-23 19:30N 46°36' E 031°43'510.8
2018-Feb-23 19:00N 46°35' E 031°35'6 3.4
2018-Feb-23 17:07N 46°34' E 031°26'0 0.0
2018-Feb-23 16:43N 46°34' E 031°26'0 0.0
2018-Feb-23 13:04N 46°34' E 031°26'0 0.4
2018-Feb-23 13:00N 46°34' E 031°26'4 6.2
2018-Feb-23 12:25N 46°35' E 031°21'1010.6
2018-Feb-23 11:30N 46°35' E 031°06'5 9.0
2018-Feb-23 10:59N 46°33' E 031°00'2 4.9
2018-Feb-23 10:31N 46°33' E 030°57'510.1
2018-Feb-23 10:00N 46°28' E 030°57'611.8
2018-Feb-23 09:31N 46°22' E 030°57'  
2018-Feb-20 11:50N 37°38' E 024°04'5 9.9
2018-Feb-20 11:21N 37°33' E 024°04'  

Dump ship's entire track history